Time;durP1;ratioP1;P1;durP2;ratioP2;P2;SDS_P1;SDS_P2;PMS_P1;PMS_P2;Temp;Humidity;BMP_temperature;BMP_pressure;BME280_temperature;BME280_humidity;BME280_pressure;Samples;Min_cycle;Max_cycle;Signal;HPM_P1;HPM_P2
2023/01/24 00:01:11;;;;;;;8.70;7.47;;;6.60;99.90;;;;;;5034913;28;20563;-75
2023/01/24 00:03:40;;;;;;;8.27;6.53;;;6.60;99.90;;;;;;5034987;28;20184;-75
2023/01/24 00:06:06;;;;;;;5.85;5.25;;;6.60;99.90;;;;;;5034063;28;20599;-75
2023/01/24 00:08:31;;;;;;;6.20;5.53;;;6.60;99.90;;;;;;5033882;28;20224;-74
2023/01/24 00:11:03;;;;;;;5.97;4.83;;;6.50;99.90;;;;;;5033897;28;20669;-75
2023/01/24 00:13:30;;;;;;;6.32;5.22;;;6.50;99.90;;;;;;5034328;28;20176;-75
2023/01/24 00:16:10;;;;;;;5.00;4.50;;;6.60;99.90;;;;;;5033405;28;20200;-75
2023/01/24 00:18:35;;;;;;;6.40;5.57;;;6.60;99.90;;;;;;5051882;28;20305;-75
2023/01/24 00:21:12;;;;;;;5.30;4.80;;;6.60;99.90;;;;;;5033647;28;20193;-75
2023/01/24 00:23:39;;;;;;;5.80;4.38;;;6.60;99.90;;;;;;5051749;28;20196;-75
2023/01/24 00:26:05;;;;;;;6.80;5.75;;;6.60;99.90;;;;;;5033910;28;20177;-75
2023/01/24 00:28:31;;;;;;;5.83;5.23;;;6.60;99.90;;;;;;5051030;28;20215;-75
2023/01/24 00:30:57;;;;;;;5.43;4.83;;;6.60;99.90;;;;;;5033801;28;21268;-75
2023/01/24 00:33:24;;;;;;;5.65;5.05;;;6.60;99.90;;;;;;5051001;28;20211;-75
2023/01/24 00:35:51;;;;;;;6.63;4.20;;;6.60;99.90;;;;;;5038334;28;20176;-75
2023/01/24 00:38:17;;;;;;;4.75;4.35;;;6.60;99.90;;;;;;5051011;28;20556;-75
2023/01/24 00:40:43;;;;;;;5.65;4.20;;;6.50;99.90;;;;;;5016880;28;20910;-75
2023/01/24 00:43:09;;;;;;;5.97;4.90;;;6.60;99.90;;;;;;5050882;28;20177;-75
2023/01/24 00:45:36;;;;;;;5.33;4.60;;;6.60;99.90;;;;;;5016979;28;20173;-75
2023/01/24 00:48:04;;;;;;;5.60;4.57;;;6.60;99.90;;;;;;5032509;28;20209;-75
2023/01/24 00:50:30;;;;;;;5.72;4.88;;;6.60;99.90;;;;;;5033515;28;20573;-75
2023/01/24 00:52:56;;;;;;;5.82;4.88;;;6.60;99.90;;;;;;5050895;28;20351;-75
2023/01/24 00:55:22;;;;;;;6.30;5.70;;;6.60;99.90;;;;;;5051357;28;20261;-75
2023/01/24 00:57:48;;;;;;;5.80;4.60;;;6.60;99.90;;;;;;5016375;28;20177;-76
2023/01/24 01:00:14;;;;;;;5.97;5.33;;;6.60;99.90;;;;;;5000114;28;20685;-76
2023/01/24 01:02:40;;;;;;;5.85;5.13;;;6.60;99.90;;;;;;5050971;28;20707;-75
2023/01/24 01:05:06;;;;;;;5.03;4.00;;;6.50;99.90;;;;;;5016503;28;20220;-76
2023/01/24 01:07:32;;;;;;;4.55;4.07;;;6.50;99.90;;;;;;5016362;28;20204;-75
2023/01/24 01:09:57;;;;;;;5.40;4.90;;;6.50;99.90;;;;;;5033076;28;20216;-75
2023/01/24 01:12:23;;;;;;;5.17;4.67;;;6.50;99.90;;;;;;5053174;28;20177;-76
2023/01/24 01:14:49;;;;;;;5.60;5.10;;;6.50;99.90;;;;;;5053176;28;20621;-76
2023/01/24 01:17:15;;;;;;;4.80;3.90;;;6.50;99.90;;;;;;5032423;28;20180;-76
2023/01/24 01:19:41;;;;;;;4.22;3.78;;;6.50;99.90;;;;;;5050782;28;20262;-76
2023/01/24 01:22:08;;;;;;;5.70;5.03;;;6.50;99.90;;;;;;5032851;28;20177;-76
2023/01/24 01:24:34;;;;;;;4.65;4.00;;;6.50;99.90;;;;;;5050870;28;20549;-76
2023/01/24 01:27:00;;;;;;;4.63;4.22;;;6.40;99.90;;;;;;5049935;28;20642;-76
2023/01/24 01:29:27;;;;;;;4.60;3.63;;;6.40;99.90;;;;;;5017676;28;20243;-75
2023/01/24 01:31:53;;;;;;;6.00;4.67;;;6.40;99.90;;;;;;5015865;28;20173;-76
2023/01/24 01:34:18;;;;;;;6.20;4.40;;;6.40;99.90;;;;;;5033101;28;20173;-75
2023/01/24 01:36:44;;;;;;;4.30;3.83;;;6.40;99.90;;;;;;4999772;28;20174;-75
2023/01/24 01:39:10;;;;;;;4.47;3.80;;;6.40;99.90;;;;;;5033388;28;20230;-75
2023/01/24 01:41:37;;;;;;;5.90;5.30;;;6.40;99.90;;;;;;5032793;28;20584;-75
2023/01/24 01:44:37;;;;;;;5.50;4.90;;;6.30;99.90;;;;;;5016692;28;20691;-75
2023/01/24 01:47:11;;;;;;;5.15;4.30;;;6.30;99.90;;;;;;5032998;28;20587;-75
2023/01/24 01:49:39;;;;;;;6.03;4.47;;;6.30;99.90;;;;;;5001648;28;20189;-75
2023/01/24 01:52:06;;;;;;;4.85;4.03;;;6.30;99.90;;;;;;5052624;28;20173;-75
2023/01/24 01:54:39;;;;;;;5.70;4.43;;;6.30;99.90;;;;;;5032634;28;20173;-75
2023/01/24 01:57:27;;;;;;;5.72;5.13;;;6.30;99.90;;;;;;5015497;28;20173;-76
2023/01/24 02:00:17;;;;;;;5.22;4.15;;;6.30;99.90;;;;;;5032420;28;20665;-75
2023/01/24 02:02:47;;;;;;;5.82;4.90;;;6.30;99.90;;;;;;4999601;28;20235;-76
2023/01/24 02:05:16;;;;;;;5.35;4.78;;;6.30;99.90;;;;;;5021020;28;20695;-76
2023/01/24 02:07:50;;;;;;;5.55;5.05;;;6.20;99.90;;;;;;5011471;28;20201;-76
2023/01/24 02:10:21;;;;;;;5.60;4.43;;;6.20;99.90;;;;;;5012241;28;20615;-76
2023/01/24 02:12:49;;;;;;;4.50;3.90;;;6.20;99.90;;;;;;5029569;28;20177;-76
2023/01/24 02:18:05;;;;;;;4.90;4.38;;;6.30;99.90;;;;;;5011722;28;20174;-76
2023/01/24 02:20:41;;;;;;;5.35;4.85;;;6.30;99.90;;;;;;5012241;28;20205;-76
2023/01/24 02:23:14;;;;;;;6.57;4.65;;;6.30;99.90;;;;;;5028199;28;20587;-76
2023/01/24 02:25:58;;;;;;;5.50;4.90;;;6.30;99.90;;;;;;4996147;28;20184;-76
2023/01/24 02:28:24;;;;;;;5.65;4.53;;;6.30;99.90;;;;;;5032640;28;20228;-76
2023/01/24 02:30:49;;;;;;;7.67;6.87;;;6.20;99.90;;;;;;5006870;28;20196;-76
2023/01/24 02:33:18;;;;;;;6.15;5.40;;;6.20;99.90;;;;;;5022357;28;20591;-76
2023/01/24 02:35:44;;;;;;;4.78;4.28;;;6.20;99.90;;;;;;5023489;28;20192;-75
2023/01/24 02:38:23;;;;;;;5.15;4.05;;;6.20;99.90;;;;;;5002556;28;20166;-76
2023/01/24 02:40:53;;;;;;;6.57;4.70;;;6.20;99.90;;;;;;4976164;28;20224;-76
2023/01/24 02:43:22;;;;;;;5.47;4.53;;;6.20;99.90;;;;;;5036381;28;20181;-77
2023/01/24 02:45:47;;;;;;;5.57;4.57;;;6.20;99.90;;;;;;5031776;28;20200;-76
2023/01/24 02:48:13;;;;;;;5.10;4.20;;;6.20;99.90;;;;;;4998439;28;20631;-76
2023/01/24 02:53:33;;;;;;;5.97;4.90;;;6.20;99.90;;;;;;5020642;28;20172;-76
2023/01/24 02:58:46;;;;;;;6.10;4.45;;;6.30;99.90;;;;;;5002105;28;20230;-76
2023/01/24 03:01:14;;;;;;;5.10;4.30;;;6.30;99.90;;;;;;5024022;28;20197;-76
2023/01/24 03:03:45;;;;;;;5.78;4.78;;;6.30;99.90;;;;;;5025213;28;21003;-76
2023/01/24 03:06:12;;;;;;;5.80;5.28;;;6.20;99.90;;;;;;5031828;28;20177;-76
2023/01/24 03:08:38;;;;;;;5.07;4.35;;;6.20;99.90;;;;;;5003852;28;20284;-76
2023/01/24 03:11:12;;;;;;;4.80;3.88;;;6.20;99.90;;;;;;5010708;28;20204;-76
2023/01/24 03:35:45;;;;;;;6.18;5.00;;;6.00;99.90;;;;;;5014617;28;20166;-75
2023/01/24 03:40:56;;;;;;;6.10;4.38;;;6.00;99.90;;;;;;5014915;28;20204;-76
2023/01/24 03:43:21;;;;;;;5.53;5.00;;;6.00;99.90;;;;;;5017998;28;20173;-75
2023/01/24 03:45:52;;;;;;;6.68;5.32;;;6.00;99.90;;;;;;5014687;28;20584;-76
2023/01/24 03:48:36;;;;;;;6.68;5.20;;;6.00;99.90;;;;;;5013792;28;20230;-76
2023/01/24 03:53:48;;;;;;;5.82;4.65;;;5.90;99.90;;;;;;5034617;28;20177;-76
2023/01/24 03:56:15;;;;;;;4.10;3.67;;;6.00;99.90;;;;;;5017806;28;20166;-76
2023/01/24 03:58:46;;;;;;;5.05;4.55;;;5.90;99.90;;;;;;5034441;28;20650;-76
2023/01/24 04:01:12;;;;;;;4.97;4.30;;;5.90;99.90;;;;;;5017884;28;20199;-76
2023/01/24 04:03:58;;;;;;;7.03;4.75;;;5.90;99.90;;;;;;5017799;28;20656;-76
2023/01/24 04:06:24;;;;;;;5.73;4.50;;;5.80;99.90;;;;;;5017346;28;20648;-76
2023/01/24 04:08:51;;;;;;;6.63;4.95;;;5.80;99.90;;;;;;5034060;28;20200;-76
2023/01/24 04:11:17;;;;;;;7.47;6.00;;;5.80;99.90;;;;;;5033816;28;20193;-76
2023/01/24 04:13:43;;;;;;;5.23;4.40;;;5.80;99.90;;;;;;5017500;28;20169;-76
2023/01/24 04:16:10;;;;;;;4.27;3.60;;;5.80;99.90;;;;;;5033950;28;20921;-76
2023/01/24 04:18:50;;;;;;;6.35;4.70;;;5.80;99.90;;;;;;5019220;28;20206;-76
2023/01/24 04:21:17;;;;;;;4.70;4.15;;;5.80;99.90;;;;;;5036464;28;20199;-76
2023/01/24 04:23:43;;;;;;;6.90;4.10;;;5.80;99.90;;;;;;5034024;28;20905;-76
2023/01/24 04:26:10;;;;;;;3.95;3.55;;;5.80;99.90;;;;;;5017336;28;20209;-75
2023/01/24 04:28:36;;;;;;;5.40;4.72;;;5.70;99.90;;;;;;5033742;28;20201;-76
2023/01/24 04:31:03;;;;;;;4.10;3.70;;;5.70;99.90;;;;;;5033840;28;20669;-75
2023/01/24 04:33:49;;;;;;;4.85;4.13;;;5.70;99.90;;;;;;4996989;28;20187;-76
2023/01/24 04:36:16;;;;;;;4.82;4.00;;;5.70;99.90;;;;;;5016866;28;20303;-76
2023/01/24 04:38:42;;;;;;;5.35;4.78;;;5.70;99.90;;;;;;5016686;28;20243;-76
2023/01/24 04:41:22;;;;;;;5.38;3.97;;;5.70;99.90;;;;;;5018620;28;20197;-76
2023/01/24 04:43:49;;;;;;;5.22;4.30;;;5.70;99.90;;;;;;5017087;28;20177;-76
2023/01/24 04:46:15;;;;;;;5.37;4.83;;;5.70;99.90;;;;;;5016427;28;20260;-75
2023/01/24 04:48:51;;;;;;;5.30;4.68;;;5.70;99.90;;;;;;5033868;28;20218;-77
2023/01/24 04:51:18;;;;;;;6.07;3.97;;;5.60;99.90;;;;;;5032745;28;20251;-75
2023/01/24 04:53:45;;;;;;;4.97;4.47;;;5.70;99.90;;;;;;5033221;28;20205;-75
2023/01/24 04:56:13;;;;;;;7.22;4.35;;;5.70;99.90;;;;;;5034737;28;20173;-76
2023/01/24 04:58:39;;;;;;;4.23;3.80;;;5.70;99.90;;;;;;5035917;28;20507;-76
2023/01/24 05:01:05;;;;;;;4.85;4.35;;;5.70;99.90;;;;;;5016056;28;20204;-76
2023/01/24 05:03:36;;;;;;;6.25;4.57;;;5.70;99.90;;;;;;5001353;28;20176;-76
2023/01/24 05:06:03;;;;;;;4.82;4.15;;;5.60;99.90;;;;;;5033327;28;20200;-76
2023/01/24 05:08:29;;;;;;;6.22;4.75;;;5.60;99.90;;;;;;5015903;28;20200;-76
2023/01/24 05:10:55;;;;;;;4.55;3.78;;;5.60;99.90;;;;;;5032893;28;20197;-76
2023/01/24 05:13:22;;;;;;;4.72;3.60;;;5.60;99.90;;;;;;5016422;28;20196;-76
2023/01/24 05:15:49;;;;;;;5.00;4.50;;;5.60;99.90;;;;;;5034657;28;20628;-76
2023/01/24 05:18:15;;;;;;;5.45;4.85;;;5.60;99.90;;;;;;5011551;28;20201;-76
2023/01/24 05:20:41;;;;;;;5.38;4.53;;;5.60;99.90;;;;;;4981210;28;20198;-76
2023/01/24 05:23:07;;;;;;;5.70;3.70;;;5.60;99.90;;;;;;5030093;28;20196;-76
2023/01/24 05:25:38;;;;;;;4.85;4.03;;;5.60;99.90;;;;;;5013047;28;20594;-76
2023/01/24 05:28:05;;;;;;;4.77;4.30;;;5.50;99.90;;;;;;5030562;28;20201;-76
2023/01/24 05:30:34;;;;;;;5.63;4.15;;;5.60;99.90;;;;;;4996703;28;20507;-76
2023/01/24 05:33:09;;;;;;;4.28;3.72;;;5.60;99.90;;;;;;4996113;28;20200;-76
2023/01/24 05:35:34;;;;;;;5.80;4.27;;;5.60;99.90;;;;;;5037326;28;20582;-76
2023/01/24 05:38:00;;;;;;;5.50;4.67;;;5.60;99.90;;;;;;5029789;28;20173;-76
2023/01/24 05:40:26;;;;;;;6.20;5.47;;;5.60;99.90;;;;;;5012714;28;20992;-76
2023/01/24 05:42:52;;;;;;;6.37;4.83;;;5.60;99.90;;;;;;4995790;28;20173;-76
2023/01/24 05:45:18;;;;;;;5.03;4.07;;;5.50;99.90;;;;;;4996319;28;20281;-76
2023/01/24 05:47:44;;;;;;;5.90;4.80;;;5.50;99.90;;;;;;5011775;28;20869;-76
2023/01/24 05:50:14;;;;;;;4.75;3.92;;;5.60;99.90;;;;;;4995916;28;20194;-76
2023/01/24 05:52:40;;;;;;;6.35;5.55;;;5.50;99.90;;;;;;5012108;28;20193;-76
2023/01/24 05:55:06;;;;;;;5.33;4.10;;;5.50;99.90;;;;;;4996147;28;20166;-76
2023/01/24 05:57:38;;;;;;;5.72;5.13;;;5.40;99.90;;;;;;4995909;28;20197;-76
2023/01/24 06:00:29;;;;;;;5.50;5.00;;;5.40;99.90;;;;;;5012387;28;20209;-76
2023/01/24 06:03:13;;;;;;;6.30;5.50;;;5.30;99.90;;;;;;5029716;28;20174;-76
2023/01/24 06:05:39;;;;;;;6.17;5.57;;;5.30;99.90;;;;;;4995761;28;20227;-76
2023/01/24 06:08:05;;;;;;;5.30;4.40;;;5.30;99.90;;;;;;5012215;28;20659;-76
2023/01/24 06:10:31;;;;;;;6.93;5.00;;;5.30;99.90;;;;;;4996031;28;20205;-76
2023/01/24 06:13:10;;;;;;;5.03;4.05;;;5.30;99.90;;;;;;5015503;28;20587;-77
2023/01/24 06:15:37;;;;;;;5.05;4.57;;;5.30;99.90;;;;;;4995646;28;20166;-76
2023/01/24 06:18:06;;;;;;;4.93;3.95;;;5.30;99.90;;;;;;4979289;28;20253;-76
2023/01/24 06:20:33;;;;;;;4.60;4.15;;;5.30;99.90;;;;;;4995134;28;20300;-76
2023/01/24 06:23:05;;;;;;;4.68;4.22;;;5.30;99.90;;;;;;4995461;28;20637;-76
2023/01/24 06:25:34;;;;;;;5.47;4.47;;;5.20;99.90;;;;;;4995508;28;20559;-76
2023/01/24 06:28:00;;;;;;;4.95;3.92;;;5.30;99.90;;;;;;5029264;28;20205;-76
2023/01/24 06:30:26;;;;;;;7.95;4.68;;;5.30;99.90;;;;;;5010758;28;20273;-75
2023/01/24 06:33:17;;;;;;;4.83;4.33;;;5.30;99.90;;;;;;5019812;28;20593;-76
2023/01/24 06:36:09;;;;;;;4.85;3.65;;;5.30;99.90;;;;;;5021757;28;20223;-76
2023/01/24 06:38:35;;;;;;;4.43;4.03;;;5.30;99.90;;;;;;5007551;28;20243;-76
2023/01/24 06:41:02;;;;;;;4.80;4.40;;;5.40;99.90;;;;;;5026472;28;20227;-76
2023/01/24 06:43:29;;;;;;;5.43;3.92;;;5.40;99.90;;;;;;5049546;28;20638;-76
2023/01/24 06:45:55;;;;;;;4.63;3.80;;;5.40;99.90;;;;;;5015086;28;20550;-77
2023/01/24 06:48:21;;;;;;;6.07;4.50;;;5.40;99.90;;;;;;5035114;28;20259;-76
2023/01/24 06:50:47;;;;;;;5.37;4.80;;;5.40;99.90;;;;;;5051585;28;20907;-76
2023/01/24 06:53:14;;;;;;;5.10;4.32;;;5.40;99.90;;;;;;5031124;28;20173;-76
2023/01/24 06:55:44;;;;;;;6.20;4.55;;;5.40;99.90;;;;;;5049125;28;20226;-76
2023/01/24 06:58:10;;;;;;;6.18;4.50;;;5.50;99.90;;;;;;5048662;28;20196;-75
2023/01/24 07:00:36;;;;;;;5.47;4.45;;;5.50;99.90;;;;;;5049414;28;20235;-76
2023/01/24 07:03:06;;;;;;;6.00;4.57;;;5.50;99.90;;;;;;5028716;28;20200;-77
2023/01/24 07:05:33;;;;;;;5.65;4.75;;;5.50;99.90;;;;;;5029721;28;20205;-78
2023/01/24 07:07:59;;;;;;;5.75;5.05;;;5.50;99.90;;;;;;5028123;28;20205;-77
2023/01/24 07:10:25;;;;;;;5.23;4.53;;;5.50;99.90;;;;;;5017316;28;20255;-76
2023/01/24 07:12:51;;;;;;;5.95;3.97;;;5.50;99.90;;;;;;5028223;28;20646;-76
2023/01/24 07:15:17;;;;;;;5.07;4.30;;;5.40;99.90;;;;;;5011185;28;20795;-76
2023/01/24 07:17:43;;;;;;;5.73;4.80;;;5.40;99.90;;;;;;5027690;28;20185;-76
2023/01/24 07:20:11;;;;;;;5.40;4.72;;;5.40;99.90;;;;;;5028740;28;20616;-76
2023/01/24 07:22:38;;;;;;;6.60;5.15;;;5.40;99.90;;;;;;5028316;28;20170;-76
2023/01/24 07:25:10;;;;;;;6.13;5.63;;;5.30;99.90;;;;;;5013051;28;20239;-76
2023/01/24 07:27:36;;;;;;;5.03;4.43;;;5.30;99.90;;;;;;4986597;28;20268;-77
2023/01/24 07:30:02;;;;;;;5.40;4.70;;;5.30;99.90;;;;;;5015238;28;20217;-75
2023/01/24 07:32:27;;;;;;;6.57;5.45;;;5.30;99.90;;;;;;5014610;28;20584;-75
2023/01/24 07:34:53;;;;;;;5.57;4.50;;;5.30;99.90;;;;;;5014818;28;20505;-75
2023/01/24 07:37:21;;;;;;;5.73;5.13;;;5.30;99.90;;;;;;5031902;28;20664;-75
2023/01/24 07:39:47;;;;;;;6.50;5.68;;;5.20;99.90;;;;;;5014253;28;20201;-75
2023/01/24 07:42:13;;;;;;;5.90;5.40;;;5.20;99.90;;;;;;5032051;28;20287;-75
2023/01/24 07:44:38;;;;;;;4.90;4.00;;;5.20;99.90;;;;;;5032539;28;20617;-75
2023/01/24 07:47:04;;;;;;;5.43;4.67;;;5.20;99.90;;;;;;5013862;28;20827;-75
2023/01/24 07:49:30;;;;;;;5.10;3.70;;;5.20;99.90;;;;;;5014340;28;20213;-75
2023/01/24 07:51:56;;;;;;;5.10;4.28;;;5.20;99.90;;;;;;5031413;28;20174;-75
2023/01/24 07:54:22;;;;;;;4.07;3.67;;;5.30;99.90;;;;;;5014747;28;20181;-76
2023/01/24 07:56:48;;;;;;;5.00;4.33;;;5.30;99.90;;;;;;5032067;28;20166;-75
2023/01/24 07:59:14;;;;;;;5.57;4.97;;;5.30;99.90;;;;;;4998188;28;20170;-75
2023/01/24 08:01:40;;;;;;;4.77;3.90;;;5.40;99.90;;;;;;5031302;28;20587;-75
2023/01/24 08:04:06;;;;;;;4.95;4.15;;;5.40;99.90;;;;;;5032074;28;20598;-75
2023/01/24 08:06:32;;;;;;;6.35;3.83;;;5.40;99.90;;;;;;5032060;28;20173;-75
2023/01/24 08:08:57;;;;;;;5.00;4.17;;;5.40;99.90;;;;;;5014665;28;20201;-75
2023/01/24 08:11:23;;;;;;;4.63;4.03;;;5.50;99.90;;;;;;5013555;28;20233;-75
2023/01/24 08:13:50;;;;;;;5.80;5.10;;;5.50;99.90;;;;;;5014132;28;20565;-75
2023/01/24 08:16:16;;;;;;;4.65;4.05;;;5.50;99.90;;;;;;5013343;28;20174;-77
2023/01/24 08:18:44;;;;;;;6.03;4.82;;;5.50;99.90;;;;;;4999184;28;20284;-76
2023/01/24 08:21:10;;;;;;;5.32;4.78;;;5.50;99.90;;;;;;5013050;28;20196;-76
2023/01/24 08:23:36;;;;;;;6.13;5.53;;;5.60;99.90;;;;;;5012142;28;20189;-76
2023/01/24 08:26:05;;;;;;;6.97;5.60;;;5.60;99.90;;;;;;5015499;28;20585;-77
2023/01/24 08:28:32;;;;;;;5.15;4.65;;;5.60;99.90;;;;;;4995138;28;20604;-76
2023/01/24 08:30:59;;;;;;;6.07;4.80;;;5.60;99.90;;;;;;5000414;28;20590;-77
2023/01/24 08:33:25;;;;;;;7.45;4.50;;;5.60;99.90;;;;;;5014987;28;20173;-77
2023/01/24 08:35:51;;;;;;;5.05;4.55;;;5.70;99.90;;;;;;5023553;28;20207;-76
2023/01/24 08:38:17;;;;;;;5.93;4.83;;;5.70;99.90;;;;;;5032623;28;20564;-77
2023/01/24 08:40:43;;;;;;;5.20;4.50;;;5.80;99.90;;;;;;5022573;28;20564;-76
2023/01/24 08:43:09;;;;;;;6.25;4.85;;;5.80;99.90;;;;;;5015310;28;20213;-76
2023/01/24 08:45:35;;;;;;;6.27;5.67;;;5.80;99.90;;;;;;5014551;28;20247;-76
2023/01/24 08:48:01;;;;;;;5.38;4.88;;;5.80;99.90;;;;;;5029989;28;20667;-76
2023/01/24 08:50:27;;;;;;;4.82;4.32;;;5.80;99.90;;;;;;5031706;28;20544;-76
2023/01/24 08:52:57;;;;;;;5.23;4.57;;;5.80;99.90;;;;;;5032005;28;20188;-76
2023/01/24 08:55:23;;;;;;;6.53;4.40;;;5.90;99.90;;;;;;5032584;28;20588;-76
2023/01/24 08:57:49;;;;;;;5.28;4.40;;;5.90;99.90;;;;;;5031759;28;20186;-76
2023/01/24 09:00:16;;;;;;;5.40;4.50;;;5.90;99.90;;;;;;5032226;28;20243;-75
2023/01/24 09:02:41;;;;;;;4.40;4.00;;;5.90;99.90;;;;;;5014283;28;20592;-76
2023/01/24 09:05:08;;;;;;;3.83;3.20;;;6.00;99.90;;;;;;5014886;28;20882;-76
2023/01/24 09:07:36;;;;;;;4.68;4.03;;;6.00;99.90;;;;;;5030541;28;20205;-77
2023/01/24 09:10:03;;;;;;;5.65;5.15;;;6.00;99.90;;;;;;5032120;28;20566;-76
2023/01/24 09:12:29;;;;;;;4.68;4.28;;;6.00;99.90;;;;;;5022433;28;20174;-76
2023/01/24 09:14:54;;;;;;;4.37;3.97;;;5.90;99.90;;;;;;5030316;28;20515;-77
2023/01/24 09:17:20;;;;;;;4.33;3.80;;;5.90;99.90;;;;;;5035119;28;20201;-77
2023/01/24 09:19:46;;;;;;;3.67;3.23;;;5.90;99.90;;;;;;5015485;28;21197;-77
2023/01/24 09:22:12;;;;;;;4.40;4.00;;;5.90;99.90;;;;;;5014487;28;20184;-77
2023/01/24 09:24:37;;;;;;;4.33;3.93;;;6.00;99.90;;;;;;5031941;28;20636;-77
2023/01/24 09:27:03;;;;;;;5.43;4.30;;;6.00;99.90;;;;;;5014146;28;20173;-77
2023/01/24 09:29:29;;;;;;;5.03;4.53;;;6.00;99.90;;;;;;5031441;28;20300;-75
2023/01/24 09:31:54;;;;;;;3.20;2.90;;;6.00;99.90;;;;;;5030328;28;20208;-75
2023/01/24 09:34:20;;;;;;;4.40;4.00;;;6.10;99.90;;;;;;5031816;28;20178;-75
2023/01/24 09:36:49;;;;;;;5.03;4.00;;;6.10;99.90;;;;;;5023041;28;20170;-75
2023/01/24 09:39:16;;;;;;;6.07;5.47;;;6.10;99.90;;;;;;5031813;28;20915;-75
2023/01/24 09:42:02;;;;;;;5.05;4.55;;;6.10;99.90;;;;;;5031354;28;20201;-76
2023/01/24 09:44:37;;;;;;;5.80;4.82;;;6.10;99.90;;;;;;5031636;28;20242;-76
2023/01/24 09:47:26;;;;;;;7.22;5.05;;;6.10;99.90;;;;;;5029876;28;20223;-76
2023/01/24 09:50:00;;;;;;;5.05;4.55;;;6.10;99.90;;;;;;5031150;28;20213;-76
2023/01/24 09:52:42;;;;;;;5.30;4.80;;;6.10;99.90;;;;;;5023658;28;20182;-76
2023/01/24 09:55:39;;;;;;;4.63;4.13;;;6.20;99.90;;;;;;5013733;28;20179;-76
2023/01/24 09:58:18;;;;;;;4.60;4.05;;;6.20;99.90;;;;;;5036581;28;20707;-76
2023/01/24 10:00:45;;;;;;;7.00;4.28;;;6.20;99.90;;;;;;5030312;28;20197;-76
2023/01/24 10:03:19;;;;;;;5.95;4.50;;;6.30;99.90;;;;;;5033677;28;20215;-76
2023/01/24 10:05:58;;;;;;;4.25;3.85;;;6.30;99.90;;;;;;5014105;28;20177;-75
2023/01/24 10:08:30;;;;;;;5.63;4.25;;;6.30;99.90;;;;;;5031377;28;20224;-76
2023/01/24 10:11:16;;;;;;;4.38;3.90;;;6.30;99.90;;;;;;5030038;28;20295;-76
2023/01/24 10:14:00;;;;;;;4.63;3.58;;;6.30;99.90;;;;;;5031802;28;20173;-77
2023/01/24 10:16:55;;;;;;;5.53;5.03;;;6.40;99.90;;;;;;5029678;28;20165;-76
2023/01/24 10:19:44;;;;;;;3.25;2.90;;;6.50;99.90;;;;;;5028232;28;20193;-76
2023/01/24 10:22:53;;;;;;;4.78;4.15;;;6.50;99.90;;;;;;5015967;28;20170;-76
2023/01/24 10:25:32;;;;;;;10.60;5.30;;;6.60;99.90;;;;;;4982713;28;20179;-76
2023/01/24 10:28:01;;;;;;;4.90;4.40;;;6.60;99.90;;;;;;5022498;28;20225;-76
2023/01/24 10:30:49;;;;;;;5.97;4.97;;;6.60;99.90;;;;;;4994027;28;20209;-76
2023/01/24 10:33:18;;;;;;;5.57;4.68;;;6.70;99.90;;;;;;5029622;28;20173;-76
2023/01/24 10:35:59;;;;;;;5.72;4.80;;;6.70;99.90;;;;;;5029971;28;20173;-76
2023/01/24 10:38:27;;;;;;;6.40;5.28;;;6.70;99.90;;;;;;5029304;28;20173;-75
2023/01/24 10:40:58;;;;;;;5.72;5.13;;;6.70;99.90;;;;;;5031141;28;20224;-75
2023/01/24 10:43:29;;;;;;;5.85;5.28;;;6.70;99.90;;;;;;5030520;28;20522;-76
2023/01/24 10:45:54;;;;;;;5.28;4.78;;;6.70;99.90;;;;;;5029798;28;20169;-75
2023/01/24 10:48:39;;;;;;;6.20;5.60;;;6.60;99.90;;;;;;5028503;28;20189;-75
2023/01/24 10:51:17;;;;;;;5.40;4.88;;;6.60;99.90;;;;;;5030378;28;20262;-75
2023/01/24 10:53:43;;;;;;;6.65;5.80;;;6.60;99.90;;;;;;5012850;28;20215;-75
2023/01/24 10:56:09;;;;;;;5.78;5.18;;;6.60;99.90;;;;;;5030766;28;20176;-76
2023/01/24 10:58:57;;;;;;;6.15;4.82;;;6.60;99.90;;;;;;5012178;28;20185;-75
2023/01/24 11:01:56;;;;;;;5.75;5.18;;;6.60;99.90;;;;;;5012455;28;20202;-75
2023/01/24 11:04:27;;;;;;;4.80;3.45;;;6.60;99.90;;;;;;5018807;28;20178;-75
2023/01/24 11:06:52;;;;;;;5.65;5.05;;;6.70;99.90;;;;;;4986984;28;20257;-76
2023/01/24 11:09:21;;;;;;;5.70;5.10;;;6.70;99.90;;;;;;5012228;28;20301;-75
2023/01/24 11:11:51;;;;;;;5.20;4.70;;;6.80;99.90;;;;;;5010561;28;20560;-75
2023/01/24 11:14:21;;;;;;;5.65;4.47;;;6.80;99.90;;;;;;5013593;28;20174;-75
2023/01/24 11:16:49;;;;;;;5.05;4.32;;;6.80;99.90;;;;;;5025731;28;20174;-76
2023/01/24 11:19:27;;;;;;;5.13;4.45;;;6.80;99.90;;;;;;5029792;28;20181;-75
2023/01/24 11:21:56;;;;;;;5.30;4.55;;;6.90;99.90;;;;;;5049667;28;20173;-76
2023/01/24 11:24:23;;;;;;;4.45;3.80;;;6.90;99.90;;;;;;5027848;28;20177;-75
2023/01/24 11:26:58;;;;;;;4.60;4.20;;;6.90;99.90;;;;;;5027492;28;20181;-76
2023/01/24 11:29:24;;;;;;;4.93;4.18;;;7.00;99.90;;;;;;5029384;28;20289;-76
2023/01/24 11:31:56;;;;;;;7.60;4.85;;;7.00;99.90;;;;;;5028343;28;20180;-76
2023/01/24 11:34:46;;;;;;;5.70;5.15;;;6.90;99.90;;;;;;5027058;28;20647;-75
2023/01/24 11:37:27;;;;;;;5.68;4.00;;;7.00;99.90;;;;;;5028728;28;20166;-76
2023/01/24 11:40:28;;;;;;;4.35;3.50;;;7.00;99.90;;;;;;5030646;28;20652;-76
2023/01/24 11:43:13;;;;;;;7.07;3.97;;;7.00;99.90;;;;;;5030262;28;20161;-76
2023/01/24 11:46:07;;;;;;;4.68;4.22;;;7.10;99.90;;;;;;5026767;28;20189;-76
2023/01/24 11:48:49;;;;;;;5.28;4.78;;;7.00;99.90;;;;;;5031221;28;20212;-75
2023/01/24 11:51:22;;;;;;;4.82;3.92;;;6.90;99.90;;;;;;5030291;28;20193;-76
2023/01/24 11:54:15;;;;;;;4.95;4.43;;;6.90;99.90;;;;;;5032590;28;21126;-75
2023/01/24 11:56:46;;;;;;;5.10;4.60;;;6.90;99.90;;;;;;5029744;28;20665;-75
2023/01/24 11:59:34;;;;;;;4.25;3.85;;;6.90;99.90;;;;;;5040381;28;20539;-76
2023/01/24 12:02:24;;;;;;;4.05;3.53;;;6.80;99.90;;;;;;5015232;28;20181;-76
2023/01/24 12:04:50;;;;;;;4.90;4.40;;;6.90;99.90;;;;;;4995408;28;20256;-76
2023/01/24 12:07:25;;;;;;;4.23;3.73;;;6.90;99.90;;;;;;5039203;28;20269;-75
2023/01/24 12:09:52;;;;;;;4.38;3.58;;;7.00;99.90;;;;;;5021407;28;20209;-75
2023/01/24 12:12:32;;;;;;;5.45;4.55;;;7.10;99.90;;;;;;5021719;28;20618;-75
2023/01/24 12:15:20;;;;;;;3.80;3.47;;;7.10;99.90;;;;;;5034996;28;20255;-75
2023/01/24 12:18:00;;;;;;;5.30;4.53;;;7.20;99.90;;;;;;5035491;28;20189;-76
2023/01/24 12:20:41;;;;;;;6.88;5.00;;;7.20;99.90;;;;;;5023843;28;20209;-76
2023/01/24 12:23:33;;;;;;;5.85;4.72;;;7.20;99.90;;;;;;5027462;28;20549;-76
2023/01/24 12:26:10;;;;;;;5.68;5.07;;;7.20;99.90;;;;;;5034037;28;20399;-75
2023/01/24 12:28:50;;;;;;;6.18;5.43;;;7.20;99.90;;;;;;5014753;28;20205;-76
2023/01/24 12:31:27;;;;;;;5.55;4.95;;;7.20;99.90;;;;;;5033032;28;20259;-76
2023/01/24 12:34:08;;;;;;;5.45;4.80;;;7.20;99.90;;;;;;5032952;28;20165;-76
2023/01/24 12:36:47;;;;;;;5.35;4.35;;;7.20;99.90;;;;;;5031671;28;20165;-76
2023/01/24 12:39:19;;;;;;;5.28;4.78;;;7.30;99.90;;;;;;5032685;28;20204;-76
2023/01/24 12:42:07;;;;;;;4.88;4.03;;;7.30;99.90;;;;;;5032771;28;20189;-76
2023/01/24 12:44:37;;;;;;;5.40;3.72;;;7.40;99.90;;;;;;5017892;28;20606;-76
2023/01/24 12:47:11;;;;;;;5.95;4.68;;;7.40;99.90;;;;;;5032689;28;20646;-76
2023/01/24 12:49:47;;;;;;;5.57;5.07;;;7.40;99.90;;;;;;5033063;28;20232;-77
2023/01/24 12:52:27;;;;;;;5.03;4.53;;;7.40;99.90;;;;;;5014518;28;20173;-76
2023/01/24 12:55:08;;;;;;;4.57;4.18;;;7.40;99.90;;;;;;5015283;28;20253;-76
2023/01/24 12:58:02;;;;;;;4.70;4.30;;;7.40;99.90;;;;;;5032575;28;20554;-76
2023/01/24 13:00:58;;;;;;;6.05;5.25;;;7.40;99.90;;;;;;5016945;28;20849;-76
2023/01/24 13:03:23;;;;;;;5.10;4.03;;;7.40;99.90;;;;;;5030713;28;20181;-77
2023/01/24 13:06:06;;;;;;;6.13;4.53;;;7.40;99.90;;;;;;5031411;28;20181;-77
2023/01/24 13:09:01;;;;;;;6.22;4.75;;;7.40;99.90;;;;;;5022282;28;20197;-76
2023/01/24 13:11:28;;;;;;;4.78;4.35;;;7.50;99.90;;;;;;5034375;28;20258;-76
2023/01/24 13:14:21;;;;;;;5.32;4.82;;;7.50;99.90;;;;;;5027508;28;20174;-75
2023/01/24 13:17:33;;;;;;;5.20;4.25;;;7.40;99.90;;;;;;4980232;28;20170;-75
2023/01/24 13:20:13;;;;;;;3.60;3.30;;;7.50;99.90;;;;;;5027714;28;20276;-75
2023/01/24 13:23:07;;;;;;;5.20;4.20;;;7.50;99.90;;;;;;5016700;28;20212;-75
2023/01/24 13:25:45;;;;;;;4.63;4.15;;;7.50;99.90;;;;;;5013511;28;20232;-75
2023/01/24 13:28:46;;;;;;;5.10;4.15;;;7.50;99.90;;;;;;5000908;28;20193;-75
2023/01/24 13:31:31;;;;;;;5.53;3.90;;;7.50;99.90;;;;;;5025184;28;20586;-76
2023/01/24 13:34:03;;;;;;;5.93;4.45;;;7.50;99.90;;;;;;5034720;28;20165;-75
2023/01/24 13:36:38;;;;;;;5.82;4.90;;;7.60;99.90;;;;;;5034390;28;20161;-75
2023/01/24 13:39:05;;;;;;;7.03;4.72;;;7.60;99.90;;;;;;5038168;28;20177;-75
2023/01/24 13:41:31;;;;;;;5.32;3.80;;;7.60;99.90;;;;;;5032793;28;20177;-75
2023/01/24 13:44:20;;;;;;;5.77;5.23;;;7.60;99.90;;;;;;5033269;28;20174;-75
2023/01/24 13:46:46;;;;;;;5.32;4.82;;;7.50;99.90;;;;;;5032250;28;20192;-75
2023/01/24 13:49:27;;;;;;;5.30;4.80;;;7.50;99.90;;;;;;5014719;28;20206;-75
2023/01/24 13:51:57;;;;;;;8.07;5.88;;;7.50;99.90;;;;;;5014916;28;20194;-75
2023/01/24 13:54:42;;;;;;;5.35;4.85;;;7.50;99.90;;;;;;5032929;28;20181;-75
2023/01/24 13:57:23;;;;;;;5.30;4.88;;;7.50;99.90;;;;;;5014695;28;20161;-75